aviador You're here:

KQBF Decoded Metar

in
Report Time2017-11-23 19:56:00
UTC Time2017-11-23 20:23:39
Flight Rules ifr IFR
Wind030° at 03 kt
W.Rank030° ranks 4
Current wind is below 030° avg. (5.1)
Visibility2000 m
Phenomena:Haze
Clouds:N/A
Expected CloudBase > 11,600 ft AGL from Temp-Dew spread
CeilingNone
Temp31°C
Dew Point02°C (16% RH)
Heat Index29.0°C
AAT28.3°C
QNH1013 hPa
Raw Report
METAR KQBF 231956Z AUTO 03003KT 2000 HZ CLR 31/02 A2992 RMK AO2 SLPNO
WND DATA ESTMD T03090021=

Extra information for KQBF:More info

Social comments